Terminal Aerodrome Forecast
Issued by NWS

Home | Current Version | Previous Version | Graphics & Text | Print | Product List | Glossary Off
Versions: 1 2 3 4 5 6 7 8 9 10 11 12 13 14 15 16 17 18 19

832
FTUS43 KMPX 221122
TAFRNH
TAF
KRNH 221122Z 2212/2312 09004KT P6SM BKN110
     FM221900 01004KT P6SM BKN150
     FM230100 33008KT P6SM SCT025 BKN035
     FM230300 32010KT P6SM SCT008 OVC015=

USA.gov is the U.S. government's official web portal to all federal, state and local government web resources and services.